createdAt,value
2023-04-29T00:02:23.986Z,12.97
2023-04-29T00:04:57.672Z,14.67
2023-04-29T00:07:27.490Z,13.17
2023-04-29T00:09:57.005Z,14.13
2023-04-29T00:12:26.537Z,13.60
2023-04-29T00:14:56.058Z,14.93
2023-04-29T00:17:25.611Z,12.40
2023-04-29T00:19:57.670Z,11.90
2023-04-29T00:22:27.452Z,14.30
2023-04-29T00:24:56.969Z,13.57
2023-04-29T00:27:27.006Z,12.40
2023-04-29T00:29:57.362Z,11.20
2023-04-29T00:32:26.918Z,12.20
2023-04-29T00:34:59.098Z,12.20
2023-04-29T00:37:28.629Z,14.70
2023-04-29T00:39:58.147Z,14.70
2023-04-29T00:42:28.647Z,12.40
2023-04-29T00:44:58.198Z,12.33
2023-04-29T00:47:27.788Z,13.60
2023-04-29T00:49:59.937Z,12.10
2023-04-29T00:52:29.594Z,12.47
2023-04-29T00:55:03.320Z,13.03
2023-04-29T00:57:34.442Z,14.30
2023-04-29T01:00:04.613Z,14.93
2023-04-29T01:02:34.314Z,14.50
2023-04-29T01:05:06.949Z,13.30
2023-04-29T01:07:42.844Z,13.13
2023-04-29T01:10:15.287Z,13.93
2023-04-29T01:12:49.577Z,16.20
2023-04-29T01:15:25.486Z,14.50
2023-04-29T01:18:00.197Z,21.20
2023-04-29T01:20:33.840Z,16.57
2023-04-29T01:23:04.058Z,27.00
2023-04-29T01:25:36.614Z,21.20
2023-04-29T01:28:12.320Z,23.37
2023-04-29T01:30:48.894Z,15.90
2023-04-29T01:33:22.640Z,17.30
2023-04-29T01:36:03.694Z,16.50
2023-04-29T01:38:37.886Z,16.30
2023-04-29T01:41:14.208Z,18.70
2023-04-29T01:43:44.092Z,17.00
2023-04-29T01:46:14.062Z,17.27
2023-04-29T01:48:43.706Z,17.30
2023-04-29T01:51:13.319Z,16.93
2023-04-29T01:53:43.430Z,18.30
2023-04-29T01:56:15.670Z,17.80
2023-04-29T01:58:45.120Z,18.23
2023-04-29T02:01:14.847Z,17.03
2023-04-29T02:03:44.576Z,17.27
2023-04-29T02:06:14.519Z,16.87
2023-04-29T02:08:44.106Z,16.97
2023-04-29T02:11:16.453Z,18.20
2023-04-29T02:13:46.253Z,17.07
2023-04-29T02:16:17.438Z,16.47
2023-04-29T02:18:47.053Z,16.67
2023-04-29T02:21:16.590Z,16.00
2023-04-29T02:23:46.104Z,17.00
2023-04-29T02:26:18.201Z,14.60
2023-04-29T02:28:47.684Z,14.73
2023-04-29T02:31:17.130Z,16.50
2023-04-29T02:33:46.769Z,15.77
2023-04-29T02:36:16.297Z,14.83
2023-04-29T02:38:45.749Z,15.40
2023-04-29T02:41:22.181Z,15.87
2023-04-29T02:43:52.122Z,15.70
2023-04-29T02:46:22.087Z,17.30
2023-04-29T02:48:51.646Z,21.13
2023-04-29T02:51:21.248Z,20.80
2023-04-29T02:53:50.749Z,18.60
2023-04-29T02:56:23.502Z,17.37
2023-04-29T02:58:53.079Z,17.80
2023-04-29T03:01:22.587Z,17.70
2023-04-29T03:03:53.323Z,16.87
2023-04-29T03:06:23.034Z,17.23
2023-04-29T03:08:52.724Z,16.20
2023-04-29T03:11:25.271Z,15.27
2023-04-29T03:13:54.790Z,17.40
2023-04-29T03:16:24.558Z,16.13
2023-04-29T03:18:54.067Z,16.43
2023-04-29T03:21:23.560Z,16.63
2023-04-29T03:23:53.078Z,15.77
2023-04-29T03:26:25.901Z,17.03
2023-04-29T03:28:55.507Z,16.67
2023-04-29T03:31:25.724Z,18.03
2023-04-29T03:33:55.291Z,15.50
2023-04-29T03:36:24.797Z,17.00
2023-04-29T03:38:54.282Z,16.13
2023-04-29T03:41:27.174Z,15.40
2023-04-29T03:44:00.820Z,17.63
2023-04-29T03:46:30.824Z,16.70
2023-04-29T03:49:00.528Z,17.00
2023-04-29T03:51:30.249Z,16.03
2023-04-29T03:54:00.681Z,16.63
2023-04-29T03:56:32.754Z,17.83
2023-04-29T03:59:02.394Z,16.60
2023-04-29T04:01:31.932Z,18.40
2023-04-29T04:04:01.725Z,16.67
2023-04-29T04:06:31.524Z,16.67
2023-04-29T04:09:01.181Z,18.17
2023-04-29T04:11:33.543Z,21.50
2023-04-29T04:14:03.025Z,18.40
2023-04-29T04:16:32.628Z,17.40
2023-04-29T04:19:02.179Z,20.17
2023-04-29T04:21:31.813Z,18.53
2023-04-29T04:24:01.299Z,23.63
2023-04-29T04:26:33.463Z,27.83
2023-04-29T04:29:03.064Z,18.17
2023-04-29T04:31:32.755Z,19.23
2023-04-29T04:34:02.401Z,20.20
2023-04-29T04:36:32.769Z,19.40
2023-04-29T04:39:02.351Z,18.23
2023-04-29T04:41:34.453Z,17.87
2023-04-29T04:44:04.218Z,17.63
2023-04-29T04:46:33.719Z,15.90
2023-04-29T04:52:26.510Z,24.90
2023-04-29T04:54:56.313Z,18.60
2023-04-29T04:57:27.718Z,17.40
2023-04-29T04:59:57.215Z,16.00
2023-04-29T05:02:27.028Z,14.30
2023-04-29T05:04:56.651Z,15.93
2023-04-29T05:07:28.739Z,17.60
2023-04-29T05:09:58.452Z,13.97
2023-04-29T05:12:30.743Z,14.70
2023-04-29T05:15:00.677Z,12.97
2023-04-29T05:17:30.282Z,15.00
2023-04-29T05:19:59.828Z,13.10
2023-04-29T05:22:32.421Z,13.50
2023-04-29T05:25:04.247Z,14.23
2023-04-29T05:27:33.714Z,15.50
2023-04-29T05:30:03.240Z,14.10
2023-04-29T05:32:32.796Z,12.23
2023-04-29T05:35:03.069Z,15.67
2023-04-29T05:37:36.199Z,12.87
2023-04-29T05:40:05.724Z,13.07
2023-04-29T05:42:35.206Z,12.77
2023-04-29T05:45:04.803Z,13.67
2023-04-29T05:47:34.296Z,11.20
2023-04-29T05:50:04.235Z,11.80
2023-04-29T05:52:36.699Z,11.17
2023-04-29T05:55:06.515Z,12.30
2023-04-29T05:57:36.066Z,11.87
2023-04-29T06:00:07.100Z,11.10
2023-04-29T06:02:41.539Z,10.90
2023-04-29T06:05:17.763Z,10.60
2023-04-29T06:07:53.602Z,10.73
2023-04-29T06:10:23.135Z,10.30
2023-04-29T06:12:53.755Z,9.60
2023-04-29T06:15:23.260Z,9.80
2023-04-29T06:17:53.662Z,10.80
2023-04-29T06:20:23.297Z,9.63
2023-04-29T06:22:55.377Z,10.07
2023-04-29T06:25:24.857Z,10.83
2023-04-29T06:27:54.673Z,10.40
2023-04-29T06:30:24.303Z,10.57
2023-04-29T06:32:53.812Z,10.43
2023-04-29T06:35:23.621Z,11.03
2023-04-29T06:37:56.783Z,9.97
2023-04-29T06:40:26.599Z,11.77
2023-04-29T06:42:56.525Z,11.20
2023-04-29T06:45:26.252Z,12.50
2023-04-29T06:47:55.806Z,11.40
2023-04-29T06:50:26.309Z,10.13
2023-04-29T06:52:58.566Z,9.00
2023-04-29T06:55:28.123Z,8.90
2023-04-29T06:57:57.837Z,8.60
2023-04-29T07:00:27.309Z,7.80
2023-04-29T07:02:57.053Z,7.73
2023-04-29T07:05:26.748Z,8.20
2023-04-29T07:07:58.826Z,9.17
2023-04-29T07:10:29.097Z,7.60
2023-04-29T07:12:59.933Z,8.13
2023-04-29T07:15:30.098Z,9.10
2023-04-29T07:18:00.671Z,7.67
2023-04-29T07:20:30.513Z,7.77
2023-04-29T07:23:03.024Z,6.13
2023-04-29T07:25:33.214Z,7.90
2023-04-29T07:28:03.329Z,7.13
2023-04-29T07:30:33.346Z,7.70
2023-04-29T07:33:04.483Z,6.33
2023-04-29T07:35:34.447Z,6.77
2023-04-29T07:38:06.710Z,7.80
2023-04-29T07:40:36.357Z,7.27
2023-04-29T07:43:06.982Z,7.77
2023-04-29T07:45:36.494Z,7.13
2023-04-29T07:48:06.209Z,7.30
2023-04-29T07:50:37.353Z,8.10
2023-04-29T07:53:10.074Z,6.33
2023-04-29T07:55:40.608Z,8.70
2023-04-29T07:58:10.638Z,13.70
2023-04-29T08:00:40.218Z,6.87
2023-04-29T08:03:10.106Z,5.90
2023-04-29T08:05:39.992Z,14.10
2023-04-29T08:08:12.171Z,6.80
2023-04-29T08:10:44.114Z,6.93
2023-04-29T08:13:13.645Z,7.07
2023-04-29T08:15:43.211Z,6.20
2023-04-29T08:18:12.786Z,6.50
2023-04-29T08:20:42.257Z,6.67
2023-04-29T08:23:14.373Z,12.37
2023-04-29T08:25:44.621Z,6.30
2023-04-29T08:28:14.205Z,10.33
2023-04-29T08:30:44.156Z,8.27
2023-04-29T08:33:13.800Z,7.10
2023-04-29T08:35:43.671Z,8.13
2023-04-29T08:38:15.848Z,7.30
2023-04-29T08:40:47.124Z,10.90
2023-04-29T08:43:17.618Z,7.80
2023-04-29T08:45:47.401Z,8.17
2023-04-29T08:48:18.199Z,7.20
2023-04-29T08:50:48.173Z,7.90
2023-04-29T08:53:20.492Z,7.70
2023-04-29T08:55:50.936Z,8.83
2023-04-29T08:58:21.222Z,8.83
2023-04-29T09:00:51.405Z,7.77
2023-04-29T09:03:27.727Z,8.80
2023-04-29T09:05:58.936Z,9.27
2023-04-29T09:08:31.395Z,7.50
2023-04-29T09:11:01.445Z,7.57
2023-04-29T09:13:33.135Z,9.70
2023-04-29T09:16:02.937Z,7.50
2023-04-29T09:18:45.444Z,7.00
2023-04-29T09:21:22.311Z,10.63
2023-04-29T09:23:55.841Z,7.40
2023-04-29T09:26:25.471Z,7.50
2023-04-29T09:29:11.373Z,7.00
2023-04-29T09:31:41.164Z,12.67
2023-04-29T09:34:12.026Z,9.97
2023-04-29T09:36:46.492Z,8.40
2023-04-29T09:39:19.689Z,11.23
2023-04-29T09:42:03.426Z,16.33
2023-04-29T09:44:36.007Z,11.27
2023-04-29T09:47:07.091Z,10.00
2023-04-29T09:49:39.902Z,8.53
2023-04-29T09:52:10.951Z,9.47
2023-04-29T09:54:44.147Z,6.57
2023-04-29T09:57:15.889Z,8.10
2023-04-29T09:59:45.711Z,8.07
2023-04-29T10:02:18.687Z,6.00
2023-04-29T10:04:49.350Z,6.27
2023-04-29T10:07:20.411Z,10.47
2023-04-29T10:09:52.505Z,6.27
2023-04-29T10:12:23.567Z,8.10
2023-04-29T10:14:57.565Z,6.60
2023-04-29T10:17:30.084Z,7.40
2023-04-29T10:20:05.974Z,6.10
2023-04-29T10:22:42.699Z,6.80
2023-04-29T10:25:15.425Z,6.40
2023-04-29T10:27:45.813Z,6.97
2023-04-29T10:30:18.470Z,7.23
2023-04-29T10:32:51.519Z,7.03
2023-04-29T10:35:25.943Z,6.63
2023-04-29T10:37:56.646Z,7.30
2023-04-29T10:40:35.155Z,6.97
2023-04-29T10:43:04.849Z,6.33
2023-04-29T10:45:36.335Z,6.70
2023-04-29T10:48:16.729Z,6.30
2023-04-29T10:51:05.730Z,5.60
2023-04-29T10:53:35.747Z,6.30
2023-04-29T10:56:13.637Z,7.87
2023-04-29T10:58:47.492Z,8.50
2023-04-29T11:01:18.067Z,7.77
2023-04-29T11:03:55.427Z,7.00
2023-04-29T11:06:27.673Z,7.67
2023-04-29T11:09:05.270Z,6.70
2023-04-29T11:11:54.094Z,6.33
2023-04-29T11:14:26.614Z,6.87
2023-04-29T11:16:57.568Z,6.00
2023-04-29T11:19:29.594Z,6.63
2023-04-29T11:22:27.726Z,8.17
2023-04-29T11:25:00.644Z,6.83
2023-04-29T11:27:36.794Z,6.70
2023-04-29T11:30:08.660Z,6.47
2023-04-29T11:32:40.688Z,6.00
2023-04-29T11:35:11.864Z,7.27
2023-04-29T11:37:41.934Z,8.37
2023-04-29T11:40:13.651Z,6.60
2023-04-29T11:42:51.324Z,6.97
2023-04-29T11:45:21.612Z,6.03
2023-04-29T11:47:53.962Z,7.67
2023-04-29T11:50:25.122Z,6.00
2023-04-29T11:52:54.605Z,7.33
2023-04-29T11:55:24.128Z,5.40
2023-04-29T11:57:56.194Z,7.53
2023-04-29T12:00:25.794Z,5.60
2023-04-29T12:02:55.404Z,5.97
2023-04-29T12:05:30.277Z,5.63
2023-04-29T12:07:59.867Z,7.10
2023-04-29T12:10:29.765Z,5.80
2023-04-29T12:13:02.075Z,5.60
2023-04-29T12:15:32.301Z,4.63
2023-04-29T12:18:03.479Z,25.37
2023-04-29T12:20:33.330Z,10.30
2023-04-29T12:23:14.622Z,5.10
2023-04-29T12:25:44.461Z,5.47
2023-04-29T12:28:18.055Z,5.00
2023-04-29T12:30:48.006Z,5.43
2023-04-29T12:33:22.720Z,4.40
2023-04-29T12:35:53.157Z,3.63
2023-04-29T12:38:27.747Z,3.23
2023-04-29T12:40:57.356Z,3.20
2023-04-29T12:43:31.938Z,4.20
2023-04-29T12:46:04.325Z,4.20
2023-04-29T12:48:34.803Z,4.53
2023-04-29T12:51:04.943Z,6.53
2023-04-29T12:53:34.995Z,3.97
2023-04-29T12:56:04.975Z,4.60
2023-04-29T12:58:37.080Z,5.80
2023-04-29T13:01:06.943Z,5.50
2023-04-29T13:03:36.770Z,5.30
2023-04-29T13:06:08.759Z,5.17
2023-04-29T13:08:38.296Z,21.73
2023-04-29T13:11:08.082Z,4.17
2023-04-29T13:13:40.198Z,11.57
2023-04-29T13:16:11.521Z,9.67
2023-04-29T13:18:47.934Z,4.60
2023-04-29T13:21:28.364Z,5.07
2023-04-29T13:23:58.086Z,3.93
2023-04-29T13:26:28.071Z,4.53
2023-04-29T13:29:00.231Z,4.20
2023-04-29T13:31:29.718Z,3.27
2023-04-29T13:33:59.571Z,3.80
2023-04-29T13:36:30.440Z,2.97
2023-04-29T13:38:59.982Z,3.30
2023-04-29T13:41:34.045Z,3.10
2023-04-29T13:44:20.656Z,2.47
2023-04-29T13:46:57.614Z,3.77
2023-04-29T13:59:48.811Z,3.43
2023-04-29T14:02:25.600Z,2.40
2023-04-29T14:04:56.013Z,3.37
2023-04-29T14:07:26.069Z,2.93
2023-04-29T14:09:55.575Z,2.40
2023-04-29T14:12:25.253Z,2.50
2023-04-29T14:14:59.632Z,2.33
2023-04-29T14:17:30.195Z,2.73
2023-04-29T14:19:59.779Z,2.40
2023-04-29T14:22:29.710Z,2.40
2023-04-29T14:24:59.450Z,2.17
2023-04-29T14:27:28.915Z,5.47
2023-04-29T14:30:01.106Z,2.60
2023-04-29T14:32:30.697Z,2.37
2023-04-29T14:35:00.250Z,3.03
2023-04-29T14:37:29.724Z,2.57
2023-04-29T14:39:59.242Z,4.50
2023-04-29T14:42:28.718Z,2.70
2023-04-29T14:45:00.982Z,3.23
2023-04-29T14:47:30.751Z,2.70
2023-04-29T14:50:00.295Z,3.03
2023-04-29T14:52:29.765Z,2.70
2023-04-29T14:54:59.290Z,1.97
2023-04-29T14:57:30.118Z,2.00
2023-04-29T15:00:02.225Z,3.90
2023-04-29T15:02:31.752Z,5.97
2023-04-29T15:05:04.265Z,1.80
2023-04-29T15:07:33.808Z,2.33
2023-04-29T15:10:03.710Z,2.20
2023-04-29T15:12:33.470Z,4.00
2023-04-29T15:15:05.917Z,2.30
2023-04-29T15:17:35.608Z,3.83
2023-04-29T15:20:05.309Z,2.70
2023-04-29T15:22:34.828Z,2.40
2023-04-29T15:25:04.700Z,9.17
2023-04-29T15:27:34.648Z,8.00
2023-04-29T15:30:07.744Z,6.30
2023-04-29T15:32:37.431Z,22.83
2023-04-29T15:35:08.055Z,3.37
2023-04-29T15:37:37.560Z,3.37
2023-04-29T15:40:08.402Z,5.20
2023-04-29T15:42:37.974Z,2.10
2023-04-29T15:45:11.844Z,1.93
2023-04-29T15:47:41.559Z,9.03
2023-04-29T15:50:12.456Z,8.90
2023-04-29T15:52:41.928Z,7.47
2023-04-29T15:55:12.106Z,5.27
2023-04-29T15:57:42.891Z,2.20
2023-04-29T16:00:16.424Z,2.40
2023-04-29T16:02:46.264Z,3.43
2023-04-29T16:05:15.856Z,2.80
2023-04-29T16:07:45.741Z,2.70
2023-04-29T16:10:15.254Z,2.20
2023-04-29T16:12:44.810Z,1.80
2023-04-29T16:15:17.263Z,2.40
2023-04-29T16:17:46.795Z,2.17
2023-04-29T16:20:17.497Z,2.27
2023-04-29T16:22:46.994Z,3.93
2023-04-29T16:25:16.539Z,2.67
2023-04-29T16:27:46.041Z,2.53
2023-04-29T16:30:18.237Z,28.17
2023-04-29T16:32:48.046Z,3.67
2023-04-29T16:35:17.693Z,3.17
2023-04-29T16:37:47.174Z,5.90
2023-04-29T16:40:17.014Z,3.27
2023-04-29T16:42:46.599Z,4.00
2023-04-29T16:45:19.180Z,8.57
2023-04-29T16:47:49.979Z,3.10
2023-04-29T16:50:19.693Z,5.30
2023-04-29T16:52:49.431Z,4.00
2023-04-29T16:55:19.042Z,2.90
2023-04-29T16:57:48.525Z,2.67
2023-04-29T17:00:20.692Z,3.23
2023-04-29T17:02:51.238Z,2.47
2023-04-29T17:05:21.698Z,2.00
2023-04-29T17:07:52.036Z,2.40
2023-04-29T17:10:21.675Z,1.77
2023-04-29T17:12:51.169Z,1.70
2023-04-29T17:15:23.378Z,2.40
2023-04-29T17:17:55.165Z,2.10
2023-04-29T17:20:24.889Z,2.40
2023-04-29T17:22:54.668Z,1.73
2023-04-29T17:25:24.619Z,2.03
2023-04-29T17:27:56.337Z,2.87
2023-04-29T17:30:28.869Z,1.77
2023-04-29T17:32:58.366Z,1.47
2023-04-29T17:35:27.894Z,1.60
2023-04-29T17:37:57.381Z,1.80
2023-04-29T17:40:27.169Z,1.50
2023-04-29T17:42:56.781Z,1.70
2023-04-29T17:45:28.956Z,1.47
2023-04-29T17:47:58.506Z,1.80
2023-04-29T17:50:28.035Z,1.90
2023-04-29T17:52:57.564Z,2.00
2023-04-29T17:55:27.333Z,1.43
2023-04-29T17:57:58.411Z,1.47
2023-04-29T18:00:30.821Z,1.90
2023-04-29T18:03:00.445Z,1.67
2023-04-29T18:05:30.227Z,1.57
2023-04-29T18:07:59.776Z,1.90
2023-04-29T18:10:29.405Z,1.60
2023-04-29T18:12:58.990Z,1.70
2023-04-29T18:15:31.252Z,1.40
2023-04-29T18:18:00.811Z,1.70
2023-04-29T18:20:30.777Z,2.07
2023-04-29T18:23:00.314Z,2.40
2023-04-29T18:25:29.848Z,1.63
2023-04-29T18:28:08.101Z,2.00
2023-04-29T18:30:51.933Z,1.70
2023-04-29T18:33:21.560Z,2.10
2023-04-29T18:35:51.168Z,2.10
2023-04-29T18:38:21.215Z,2.10
2023-04-29T18:40:51.481Z,2.33
2023-04-29T18:43:24.622Z,2.23
2023-04-29T18:45:57.204Z,1.90
2023-04-29T18:48:27.841Z,2.10
2023-04-29T18:50:59.375Z,1.90
2023-04-29T18:53:30.122Z,2.03
2023-04-29T18:55:59.813Z,1.73
2023-04-29T18:58:30.003Z,1.90
2023-04-29T19:01:03.230Z,2.87
2023-04-29T19:03:32.956Z,1.90
2023-04-29T19:06:02.493Z,2.30
2023-04-29T19:08:32.032Z,2.30
2023-04-29T19:11:01.643Z,1.57
2023-04-29T19:13:31.246Z,1.90
2023-04-29T19:16:03.410Z,2.77
2023-04-29T19:18:33.100Z,2.60
2023-04-29T19:21:03.114Z,2.20
2023-04-29T19:23:32.600Z,2.10
2023-04-29T19:26:02.131Z,2.10
2023-04-29T19:28:31.619Z,2.50
2023-04-29T19:31:03.879Z,2.43
2023-04-29T19:33:33.522Z,2.30
2023-04-29T19:36:04.267Z,5.17
2023-04-29T19:38:33.789Z,1.93
2023-04-29T19:41:03.468Z,2.27
2023-04-29T19:43:32.931Z,2.70
2023-04-29T19:46:05.008Z,3.10
2023-04-29T19:48:34.547Z,2.23
2023-04-29T19:51:04.060Z,2.33
2023-04-29T19:53:33.556Z,2.63
2023-04-29T19:56:03.873Z,2.20
2023-04-29T19:58:33.419Z,2.43
2023-04-29T20:01:06.356Z,2.50
2023-04-29T20:03:39.424Z,2.47
2023-04-29T20:06:10.353Z,3.90
2023-04-29T20:08:40.269Z,2.30
2023-04-29T20:11:09.844Z,2.63
2023-04-29T20:13:39.549Z,2.00
2023-04-29T20:16:11.709Z,2.37
2023-04-29T20:18:41.246Z,2.40
2023-04-29T20:21:10.808Z,2.40
2023-04-29T20:23:40.302Z,2.50
2023-04-29T20:26:09.777Z,1.90
2023-04-29T20:28:39.267Z,2.10
2023-04-29T20:31:11.366Z,2.37
2023-04-29T20:33:40.942Z,3.23
2023-04-29T20:36:10.525Z,2.87
2023-04-29T20:38:40.471Z,2.97
2023-04-29T20:41:10.506Z,3.13
2023-04-29T20:43:40.005Z,2.27
2023-04-29T20:46:12.165Z,2.40
2023-04-29T20:48:42.326Z,2.53
2023-04-29T20:51:12.870Z,3.27
2023-04-29T20:53:42.424Z,3.10
2023-04-29T20:56:12.660Z,2.87
2023-04-29T20:58:42.158Z,2.63
2023-04-29T21:01:14.313Z,2.60
2023-04-29T21:03:43.830Z,3.10
2023-04-29T21:06:13.527Z,3.00
2023-04-29T21:08:43.031Z,3.17
2023-04-29T21:11:12.720Z,3.50
2023-04-29T21:13:42.198Z,3.50
2023-04-29T21:16:14.396Z,3.40
2023-04-29T21:18:43.939Z,3.73
2023-04-29T21:21:13.775Z,3.80
2023-04-29T21:23:43.286Z,3.53
2023-04-29T21:26:15.219Z,3.63
2023-04-29T21:28:45.475Z,3.80
2023-04-29T21:31:17.914Z,3.80
2023-04-29T21:33:47.819Z,3.47
2023-04-29T21:36:17.281Z,3.87
2023-04-29T21:38:46.767Z,3.60
2023-04-29T21:41:27.456Z,3.63
2023-04-29T21:43:57.728Z,3.70
2023-04-29T21:46:30.985Z,3.60
2023-04-29T21:49:00.639Z,3.83
2023-04-29T21:51:31.817Z,3.83
2023-04-29T21:54:01.376Z,3.70
2023-04-29T21:56:30.963Z,4.40
2023-04-29T21:59:00.438Z,4.10
2023-04-29T22:01:48.759Z,3.80
2023-04-29T22:04:19.384Z,3.93
2023-04-29T22:06:48.890Z,3.50
2023-04-29T22:09:18.742Z,4.13
2023-04-29T22:11:48.335Z,3.70
2023-04-29T22:14:18.299Z,3.87
2023-04-29T22:16:50.490Z,4.07
2023-04-29T22:19:19.977Z,4.90
2023-04-29T22:21:49.497Z,4.27
2023-04-29T22:24:19.025Z,4.30
2023-04-29T22:26:48.558Z,4.13
2023-04-29T22:29:19.377Z,4.20
2023-04-29T22:31:51.464Z,3.80
2023-04-29T22:34:21.472Z,4.43
2023-04-29T22:36:50.983Z,3.90
2023-04-29T22:39:20.536Z,4.33
2023-04-29T22:41:50.049Z,3.60
2023-04-29T22:44:19.832Z,3.40
2023-04-29T22:46:51.922Z,4.37
2023-04-29T22:49:21.416Z,3.30
2023-04-29T22:51:50.899Z,4.10
2023-04-29T22:54:20.481Z,5.53
2023-04-29T22:56:50.156Z,3.20
2023-04-29T22:59:19.627Z,3.80
2023-04-29T23:01:52.441Z,4.40
2023-04-29T23:04:23.453Z,3.90
2023-04-29T23:06:53.606Z,3.27
2023-04-29T23:09:23.187Z,3.57
2023-04-29T23:11:52.652Z,3.50
2023-04-29T23:14:23.654Z,3.87
2023-04-29T23:16:56.306Z,3.60
2023-04-29T23:19:26.156Z,3.20
2023-04-29T23:21:55.940Z,4.27
2023-04-29T23:24:25.608Z,4.40
2023-04-29T23:26:55.126Z,6.80
2023-04-29T23:29:24.915Z,3.67
2023-04-29T23:31:56.969Z,4.63
2023-04-29T23:34:26.481Z,4.60
2023-04-29T23:36:56.024Z,4.20
2023-04-29T23:39:25.596Z,4.40
2023-04-29T23:41:55.117Z,3.63
2023-04-29T23:44:25.289Z,4.10
2023-04-29T23:46:57.410Z,5.07
2023-04-29T23:49:26.967Z,4.90
2023-04-29T23:51:56.607Z,3.93
2023-04-29T23:54:26.137Z,4.70
2023-04-29T23:56:55.726Z,4.23
2023-04-29T23:59:25.566Z,4.70
